Time;durP1;ratioP1;P1;durP2;ratioP2;P2;SDS_P1;SDS_P2;PMS_P1;PMS_P2;Temp;Humidity;BMP_temperature;BMP_pressure;BME280_temperature;BME280_humidity;BME280_pressure;Samples;Min_cycle;Max_cycle;Signal;HPM_P1;HPM_P2
2022/09/20 03:01:41;;;;;;;16.48;1.58;;;;;;;7.85;71.27;101050.16;6068074;23;20928;31
2022/09/20 03:04:29;;;;;;;1.70;1.00;;;;;;;7.88;71.37;101041.88;4945983;28;20047;-70
2022/09/20 03:07:28;;;;;;;1.73;1.30;;;;;;;7.86;71.55;101049.16;4943184;29;20043;-69
2022/09/20 03:10:22;;;;;;;5.68;1.85;;;;;;;7.84;71.37;101047.59;4956088;29;20058;-69
2022/09/20 03:13:16;;;;;;;3.80;1.70;;;;;;;7.83;71.75;101054.75;4936761;29;20063;-69
2022/09/20 03:15:46;;;;;;;3.90;1.15;;;;;;;7.81;71.82;101053.19;4888558;29;20051;-70
2022/09/20 03:18:25;;;;;;;2.80;1.30;;;;;;;7.81;71.76;101066.53;4936308;29;20058;-65
2022/09/20 03:21:21;;;;;;;4.93;1.30;;;;;;;7.80;72.02;101060.34;4952127;29;20124;-66
2022/09/20 03:23:56;;;;;;;3.75;1.20;;;;;;;7.84;71.83;101055.63;4954306;29;20066;-66
2022/09/20 03:26:33;;;;;;;8.55;1.40;;;;;;;7.86;71.75;101064.34;4937948;29;20050;-65
2022/09/20 03:29:08;;;;;;;3.60;0.98;;;;;;;7.90;71.64;101061.28;4955292;29;20462;-66
2022/09/20 03:32:03;;;;;;;6.00;1.58;;;;;;;7.81;72.27;101067.41;4956329;29;20043;-65
2022/09/20 03:34:32;;;;;;;4.30;1.20;;;;;;;7.97;71.66;101071.44;4955690;29;20055;-65
2022/09/20 03:37:21;;;;;;;7.13;1.52;;;;;;;7.93;71.82;101070.00;4946812;29;20050;-66
2022/09/20 03:40:43;;;;;;;5.18;1.20;;;;;;;8.00;71.67;101069.31;4935852;29;20043;-65
2022/09/20 03:43:34;;;;;;;4.32;1.52;;;;;;;8.06;71.54;101076.81;4868620;29;20426;-71
2022/09/20 03:46:17;;;;;;;4.13;1.40;;;;;;;8.08;71.48;101079.34;4871895;29;20056;-65
2022/09/20 03:49:14;;;;;;;2.75;1.20;;;;;;;8.10;71.23;101072.88;4877226;29;20171;-66
2022/09/20 03:52:05;;;;;;;2.40;1.13;;;;;;;8.13;71.59;101071.78;4875866;29;20157;-65
2022/09/20 03:55:01;;;;;;;4.45;1.15;;;;;;;8.13;71.54;101067.28;4876261;29;20049;-75
2022/09/20 03:57:40;;;;;;;7.53;1.95;;;;;;;8.05;71.91;101074.25;4876178;29;20362;-74
2022/09/20 04:00:07;;;;;;;3.97;1.33;;;;;;;8.02;71.80;101072.72;4875964;29;20390;-73
2022/09/20 04:02:59;;;;;;;4.75;1.73;;;;;;;8.02;71.94;101072.72;4876013;29;20063;-74
2022/09/20 04:06:12;;;;;;;3.03;1.17;;;;;;;8.03;71.93;101077.06;4875489;29;20052;-75
2022/09/20 04:08:44;;;;;;;6.22;1.70;;;;;;;8.05;71.74;101076.94;4876315;29;20055;-74
2022/09/20 04:11:14;;;;;;;3.28;1.38;;;;;;;8.12;71.54;101086.97;4884994;29;20056;-75
2022/09/20 04:13:59;;;;;;;5.97;1.95;;;;;;;7.90;72.43;101084.47;4894628;29;20045;-74
2022/09/20 04:16:58;;;;;;;10.10;1.50;;;;;;;7.96;72.51;101081.28;4911803;29;20047;-76
2022/09/20 04:19:36;;;;;;;6.68;2.70;;;;;;;7.99;72.16;101090.84;4953377;29;20447;-74
2022/09/20 04:22:06;;;;;;;19.60;8.27;;;;;;;8.05;71.92;101084.94;4953956;29;20063;-74
2022/09/20 04:24:51;;;;;;;10.20;3.88;;;;;;;7.92;72.29;101081.69;4953278;29;20066;-75
2022/09/20 04:27:33;;;;;;;9.50;2.95;;;;;;;7.97;72.15;101087.44;4952266;29;20054;-74
2022/09/20 04:30:28;;;;;;;8.10;3.10;;;;;;;8.08;71.94;101090.03;4951588;29;20047;-74
2022/09/20 04:33:20;;;;;;;4.18;1.90;;;;;;;7.96;72.20;101085.78;4952823;29;20046;-75
2022/09/20 04:38:41;;;;;;;4.93;1.90;;;;;;;8.05;71.65;101087.63;4952850;29;20137;-75
2022/09/20 04:41:18;;;;;;;2.55;1.13;;;;;;;7.96;72.46;101091.97;4952188;29;20051;-74
2022/09/20 04:44:21;;;;;;;5.45;1.60;;;;;;;8.00;72.25;101084.50;4951449;29;20050;-75
2022/09/20 04:47:04;;;;;;;11.85;6.13;;;;;;;7.99;72.10;101089.03;4952566;29;20050;-75
2022/09/20 04:49:32;;;;;;;19.27;4.35;;;;;;;7.94;72.23;101088.56;4943262;29;20043;-74
2022/09/20 04:52:35;;;;;;;12.40;2.13;;;;;;;8.04;71.92;101097.47;4923500;29;20043;-74
2022/09/20 04:55:34;;;;;;;4.65;2.15;;;;;;;7.98;71.99;101089.97;4951695;29;20054;-74
2022/09/20 04:58:09;;;;;;;4.57;2.10;;;;;;;7.99;72.02;101097.03;4952273;28;20039;-74
2022/09/20 05:00:51;;;;;;;3.30;2.10;;;;;;;7.97;72.35;101104.31;4951304;29;20054;-74
2022/09/20 05:03:28;;;;;;;6.30;2.03;;;;;;;8.00;71.89;101100.53;4935494;29;20043;-74
2022/09/20 05:06:32;;;;;;;7.40;1.83;;;;;;;7.96;72.14;101099.97;4952314;29;20043;-75
2022/09/20 05:09:29;;;;;;;4.85;2.33;;;;;;;8.02;71.91;101106.59;4951137;29;20392;-74
2022/09/20 05:12:20;;;;;;;5.00;2.17;;;;;;;8.08;71.81;101114.91;4951797;29;20063;-75
2022/09/20 05:15:37;;;;;;;9.57;1.90;;;;;;;8.12;71.74;101116.38;4951456;29;20047;-75
2022/09/20 05:18:41;;;;;;;4.80;1.85;;;;;;;8.08;71.92;101120.25;4908883;29;20047;-74
2022/09/20 05:21:28;;;;;;;4.95;2.08;;;;;;;8.18;71.58;101124.81;4952286;29;20058;-74
2022/09/20 05:24:32;;;;;;;4.72;1.67;;;;;;;8.19;71.46;101135.34;4951426;29;20054;-74
2022/09/20 05:27:27;;;;;;;3.88;1.75;;;;;;;8.20;71.45;101136.22;4952050;29;20471;-74
2022/09/20 05:30:12;;;;;;;6.25;1.92;;;;;;;8.19;71.43;101135.34;4950731;29;20467;-74
2022/09/20 05:33:01;;;;;;;4.47;1.60;;;;;;;8.24;71.14;101143.81;4951750;29;20451;-75
2022/09/20 05:35:57;;;;;;;9.30;2.60;;;;;;;8.24;71.40;101143.81;4951409;29;20047;-74
2022/09/20 05:38:44;;;;;;;5.22;1.85;;;;;;;8.24;71.37;101149.16;4950635;29;20058;-74
2022/09/20 05:41:23;;;;;;;7.03;1.80;;;;;;;8.28;71.15;101139.06;4951157;29;20055;-74
2022/09/20 05:44:11;;;;;;;5.55;1.90;;;;;;;8.32;71.22;101148.50;4952713;29;20073;-75
2022/09/20 05:46:57;;;;;;;7.65;2.10;;;;;;;8.34;71.07;101152.72;4934187;29;20059;-75
2022/09/20 05:49:51;;;;;;;8.60;3.50;;;;;;;8.33;70.89;101153.72;4951370;29;20054;-74
2022/09/20 05:52:42;;;;;;;4.35;1.83;;;;;;;8.48;70.78;101156.03;4952394;29;20073;-75
2022/09/20 05:55:46;;;;;;;12.30;2.20;;;;;;;8.42;71.15;101162.75;4950726;29;20134;-73
2022/09/20 05:58:31;;;;;;;6.20;1.88;;;;;;;8.52;70.85;101168.97;4951051;29;20055;-75
2022/09/20 06:01:17;;;;;;;7.75;1.48;;;;;;;8.52;70.61;101163.63;4949691;29;20047;-74
2022/09/20 06:03:53;;;;;;;7.47;1.45;;;;;;;8.65;70.45;101166.06;4951371;29;20070;-74
2022/09/20 06:06:49;;;;;;;7.55;1.15;;;;;;;8.78;70.28;101176.47;4952699;29;20058;-73
2022/09/20 06:09:38;;;;;;;16.08;1.60;;;;;;;8.89;70.15;101172.88;4923415;29;20059;-75
2022/09/20 06:12:07;;;;;;;6.22;1.55;;;;;;;9.07;69.48;101177.41;4950997;29;20046;-75
2022/09/20 06:14:59;;;;;;;4.63;1.70;;;;;;;9.14;69.06;101179.53;4951154;29;20039;-75
2022/09/20 06:17:37;;;;;;;7.20;1.48;;;;;;;9.21;69.08;101177.97;4950568;29;20039;-74
2022/09/20 06:20:16;;;;;;;6.70;1.40;;;;;;;9.52;68.62;101179.56;4951493;29;20105;-75
2022/09/20 06:22:46;;;;;;;8.48;1.45;;;;;;;9.52;67.86;101186.75;4951244;29;20383;-73
2022/09/20 06:25:19;;;;;;;4.80;1.50;;;;;;;9.72;67.55;101192.94;4950836;29;20047;-75
2022/09/20 06:27:58;;;;;;;3.78;1.20;;;;;;;9.78;66.93;101189.66;4930675;29;20051;-74
2022/09/20 06:30:39;;;;;;;4.90;1.60;;;;;;;9.80;66.74;101185.00;4950347;29;20050;-73
2022/09/20 06:33:06;;;;;;;3.05;1.60;;;;;;;10.07;65.92;101194.97;4950993;29;20051;-74
2022/09/20 06:35:38;;;;;;;4.10;1.27;;;;;;;10.12;65.66;101197.22;4951708;29;20492;-76
2022/09/20 06:43:47;;;;;;;12.05;5.03;;;;;;;10.27;64.32;101201.97;4950323;29;20055;-74
2022/09/20 06:46:14;;;;;;;7.68;3.72;;;;;;;10.46;64.02;101210.91;4952751;29;20059;-76
2022/09/20 06:48:41;;;;;;;6.53;2.00;;;;;;;10.64;63.69;101209.16;4944249;28;20051;-68
2022/09/20 06:51:08;;;;;;;10.90;2.03;;;;;;;10.99;62.39;101211.09;4964585;28;20051;-65
2022/09/20 06:53:39;;;;;;;3.78;1.27;;;;;;;11.34;61.42;101204.06;4943845;28;20047;-65
2022/09/20 06:56:16;;;;;;;5.97;1.50;;;;;;;11.92;59.60;101206.25;4965089;28;20055;-65
2022/09/20 06:58:42;;;;;;;7.72;1.50;;;;;;;12.08;58.00;101210.06;4953058;29;20047;-66
2022/09/20 07:01:09;;;;;;;4.28;1.25;;;;;;;12.18;57.69;101200.06;4952838;29;20051;-66
2022/09/20 07:03:37;;;;;;;5.35;1.65;;;;;;;12.04;58.00;101214.09;4952447;29;20047;-65
2022/09/20 07:06:03;;;;;;;5.20;1.17;;;;;;;11.99;57.70;101209.16;4951236;29;20054;-65
2022/09/20 07:08:30;;;;;;;4.32;1.20;;;;;;;11.72;58.25;101226.25;4950504;29;20055;-71
2022/09/20 07:11:02;;;;;;;7.28;1.63;;;;;;;11.43;58.85;101227.31;4951479;29;20051;-65
2022/09/20 07:13:29;;;;;;;4.70;1.30;;;;;;;11.42;59.11;101220.28;4950948;29;20408;-71
2022/09/20 07:16:01;;;;;;;7.88;1.30;;;;;;;11.54;59.19;101234.31;4926726;29;20074;-67
2022/09/20 07:18:28;;;;;;;9.32;1.38;;;;;;;12.39;57.92;101224.72;4951610;29;20530;-67
2022/09/20 07:20:57;;;;;;;8.93;1.70;;;;;;;13.14;55.80;101226.72;4951099;29;20050;-66
2022/09/20 07:23:25;;;;;;;6.65;1.33;;;;;;;13.96;53.88;101232.19;4953965;28;20057;-63
2022/09/20 07:25:52;;;;;;;8.30;1.60;;;;;;;14.52;51.66;101228.53;4955766;29;20054;-66
2022/09/20 07:28:19;;;;;;;5.22;1.38;;;;;;;15.03;50.46;101232.75;4955618;29;20059;-63
2022/09/20 07:30:46;;;;;;;9.80;1.50;;;;;;;15.01;49.66;101241.84;4970547;28;20074;-64
2022/09/20 07:33:18;;;;;;;3.47;1.25;;;;;;;15.12;49.24;101243.34;4953986;28;20047;-63
2022/09/20 07:35:45;;;;;;;;;;;;;;;15.31;48.35;101243.91;4956187;28;20487;-63
2022/09/20 07:38:12;;;;;;;7.60;1.52;;;;;;;15.67;48.57;101239.63;4956012;29;20010;-65
2022/09/20 07:40:39;;;;;;;6.28;1.40;;;;;;;16.00;47.09;101242.03;4955954;29;20046;-65
2022/09/20 07:43:05;;;;;;;7.80;1.80;;;;;;;16.00;46.44;101244.75;4954488;29;20055;-65
2022/09/20 07:45:33;;;;;;;7.50;1.55;;;;;;;16.55;45.35;101254.34;4955606;29;20054;-65
2022/09/20 07:48:04;;;;;;;4.18;1.30;;;;;;;16.77;44.96;101249.03;4955849;29;20050;-64
2022/09/20 07:50:31;;;;;;;5.93;1.10;;;;;;;16.74;45.30;101246.69;4954712;29;20047;-66
2022/09/20 07:52:58;;;;;;;3.85;1.27;;;;;;;16.78;45.51;101248.84;4955385;29;20057;-63
2022/09/20 07:55:24;;;;;;;3.85;1.25;;;;;;;16.91;44.29;101256.28;4953735;29;20062;-64
2022/09/20 07:57:51;;;;;;;4.35;1.20;;;;;;;16.92;45.47;101257.13;4955603;29;20047;-67
2022/09/20 08:00:17;;;;;;;7.43;1.50;;;;;;;17.32;44.17;101261.16;4954981;29;20055;-63
2022/09/20 08:02:44;;;;;;;5.53;1.25;;;;;;;17.80;42.84;101261.47;4954536;29;20054;-64
2022/09/20 08:05:11;;;;;;;3.22;1.33;;;;;;;17.13;45.13;101257.19;4954984;29;20058;-65
2022/09/20 08:07:38;;;;;;;3.80;1.20;;;;;;;17.88;42.65;101265.91;4955425;29;20075;-65
2022/09/20 08:10:05;;;;;;;5.30;1.40;;;;;;;18.13;42.05;101267.16;4954280;29;20149;-65
2022/09/20 08:12:32;;;;;;;13.40;1.63;;;;;;;18.20;42.29;101265.41;4954587;29;20384;-66
2022/09/20 08:15:18;;;;;;;4.75;1.60;;;;;;;18.11;42.24;101262.97;4955669;29;20055;-66
2022/09/20 08:17:46;;;;;;;3.92;1.27;;;;;;;18.45;40.84;101265.78;4955434;29;20043;-67
2022/09/20 08:20:12;;;;;;;8.10;1.88;;;;;;;18.37;40.76;101274.06;4954725;29;20047;-66
2022/09/20 08:22:41;;;;;;;10.05;2.05;;;;;;;17.98;41.46;101275.41;4954150;29;20051;-66
2022/09/20 08:25:08;;;;;;;7.70;1.50;;;;;;;18.58;40.77;101270.44;4955210;29;20051;-65
2022/09/20 08:27:35;;;;;;;5.40;1.55;;;;;;;17.97;42.31;101265.59;4955041;29;20456;-67
2022/09/20 08:30:01;;;;;;;7.35;1.50;;;;;;;18.31;41.10;101266.72;4955142;29;20057;-70
2022/09/20 08:32:28;;;;;;;6.80;1.60;;;;;;;18.57;40.53;101276.06;4955230;29;20415;-66
2022/09/20 08:34:54;;;;;;;7.05;1.52;;;;;;;18.46;40.73;101272.88;4928816;28;20087;-66
2022/09/20 08:37:20;;;;;;;7.03;1.35;;;;;;;18.91;40.30;101284.22;4954655;28;20065;-66
2022/09/20 08:39:48;;;;;;;6.30;1.48;;;;;;;18.78;39.97;101289.56;4955218;29;20050;-66
2022/09/20 08:42:29;;;;;;;8.32;1.80;;;;;;;18.92;40.15;101294.06;4953300;29;20089;-66
2022/09/20 08:45:10;;;;;;;12.75;1.73;;;;;;;18.72;40.99;101288.50;4954684;29;20103;-67
2022/09/20 08:48:00;;;;;;;6.35;1.70;;;;;;;19.19;39.50;101294.19;4954837;29;20054;-66
2022/09/20 08:50:27;;;;;;;6.47;1.58;;;;;;;18.73;40.64;101292.91;4953277;29;20059;-66
2022/09/20 08:53:03;;;;;;;6.53;2.08;;;;;;;18.85;40.34;101293.16;4954428;29;20058;-66
2022/09/20 08:55:31;;;;;;;6.82;1.80;;;;;;;18.99;40.02;101297.66;4944895;29;20043;-67
2022/09/20 08:58:10;;;;;;;9.25;1.67;;;;;;;18.72;40.75;101296.66;4954776;29;20108;-68
2022/09/20 09:00:45;;;;;;;6.40;1.45;;;;;;;19.27;39.67;101302.16;4954659;29;20115;-65
2022/09/20 09:03:15;;;;;;;9.52;1.88;;;;;;;19.14;40.17;101302.09;4953097;29;20054;-66
2022/09/20 09:05:48;;;;;;;5.53;1.77;;;;;;;19.46;38.76;101290.50;4954875;29;20047;-68
2022/09/20 09:08:35;;;;;;;5.13;1.70;;;;;;;19.85;38.56;101302.53;4953879;29;20054;-66
2022/09/20 09:11:13;;;;;;;7.40;1.88;;;;;;;20.10;37.62;101296.47;4952910;29;20054;-67
2022/09/20 09:13:52;;;;;;;9.07;1.75;;;;;;;19.62;38.95;101296.59;4953975;29;20047;-67
2022/09/20 09:16:22;;;;;;;5.95;1.35;;;;;;;19.56;39.19;101300.19;4954356;29;20051;-65
2022/09/20 09:18:56;;;;;;;12.63;1.85;;;;;;;20.55;36.87;101299.41;4953287;29;20043;-65
2022/09/20 09:21:26;;;;;;;8.90;1.52;;;;;;;20.37;37.02;101292.69;4953769;29;20055;-67
2022/09/20 09:24:04;;;;;;;12.18;1.67;;;;;;;19.77;38.47;101300.03;4943864;29;20134;-66
2022/09/20 09:26:37;;;;;;;5.50;1.90;;;;;;;20.71;36.61;101298.97;4953477;29;20047;-66
2022/09/20 09:29:08;;;;;;;8.30;1.92;;;;;;;19.77;38.22;101297.31;4946089;29;20043;-65
2022/09/20 09:31:36;;;;;;;5.50;1.47;;;;;;;20.24;37.77;101300.88;4953159;29;20043;-66
2022/09/20 09:34:02;;;;;;;8.27;1.63;;;;;;;20.67;36.48;101304.00;4954272;29;20047;-65
2022/09/20 09:36:32;;;;;;;12.20;1.80;;;;;;;21.10;35.55;101302.59;4954042;29;20514;-67
2022/09/20 09:39:21;;;;;;;8.95;1.50;;;;;;;20.77;36.11;101309.03;4952702;29;20047;-66
2022/09/20 09:41:48;;;;;;;8.30;2.22;;;;;;;20.33;36.69;101312.41;4952887;29;20069;-66
2022/09/20 09:44:19;;;;;;;5.72;1.58;;;;;;;19.37;39.18;101305.34;4952530;29;20058;-65
2022/09/20 09:46:46;;;;;;;7.72;1.80;;;;;;;18.90;39.68;101309.72;4952545;29;20054;-66
2022/09/20 09:49:23;;;;;;;7.22;1.65;;;;;;;19.37;39.10;101310.78;4951796;29;20047;-65
2022/09/20 09:52:11;;;;;;;8.85;2.00;;;;;;;20.00;37.89;101317.84;4952689;29;20049;-65
2022/09/20 09:54:46;;;;;;;7.88;1.80;;;;;;;20.64;36.82;101307.16;4951900;29;20055;-67
2022/09/20 09:57:40;;;;;;;12.10;1.90;;;;;;;21.23;35.46;101310.78;4952710;29;20055;-70
2022/09/20 10:00:13;;;;;;;6.75;2.35;;;;;;;19.89;37.55;101306.53;4952507;29;20051;-65
2022/09/20 10:03:11;;;;;;;12.07;4.85;;;;;;;21.32;35.12;101308.63;4951895;29;20134;-66
2022/09/20 10:05:59;;;;;;;7.20;3.33;;;;;;;22.03;33.85;101302.13;4952638;29;20122;-66
2022/09/20 10:09:05;;;;;;;9.00;3.60;;;;;;;21.72;34.03;101300.22;4951565;29;20130;-65
2022/09/20 10:12:10;;;;;;;3.10;1.45;;;;;;;21.66;34.69;101295.63;4952509;29;20055;-65
2022/09/20 10:14:55;;;;;;;4.45;1.48;;;;;;;22.31;32.60;101297.03;4952335;29;20043;-67
2022/09/20 10:17:27;;;;;;;6.53;1.60;;;;;;;20.53;35.86;101298.81;4953020;29;20059;-65
2022/09/20 10:20:26;;;;;;;6.38;1.83;;;;;;;20.46;36.03;101301.53;4950992;29;20059;-65
2022/09/20 10:23:14;;;;;;;4.25;1.48;;;;;;;20.85;35.58;101295.16;4952790;29;20191;-66
2022/09/20 10:26:10;;;;;;;8.02;1.52;;;;;;;20.21;37.60;101298.56;4953041;28;20051;-66
2022/09/20 10:28:57;;;;;;;7.53;1.73;;;;;;;19.10;38.62;101300.84;4952289;29;20419;-66
2022/09/20 10:32:02;;;;;;;10.55;2.00;;;;;;;19.30;37.79;101309.91;4952326;29;20406;-66
2022/09/20 10:34:29;;;;;;;6.22;1.83;;;;;;;20.10;36.54;101304.66;4953511;29;20039;-67
2022/09/20 10:36:57;;;;;;;8.98;1.85;;;;;;;20.27;36.24;101308.63;4953107;29;20043;-65
2022/09/20 10:39:37;;;;;;;5.22;1.40;;;;;;;20.12;36.03;101303.41;4952483;29;20414;-65
2022/09/20 10:45:37;;;;;;;4.30;1.42;;;;;;;19.25;38.32;101302.38;4953215;29;20051;-67
2022/09/20 10:48:34;;;;;;;8.23;1.85;;;;;;;18.73;39.50;101300.22;4951260;29;22337;-66
2022/09/20 10:51:14;;;;;;;7.35;2.22;;;;;;;19.84;37.54;101311.78;4948452;29;20066;-67
2022/09/20 10:53:46;;;;;;;7.03;2.13;;;;;;;19.77;37.19;101316.38;4952842;29;20075;-67
2022/09/20 10:56:35;;;;;;;6.85;1.88;;;;;;;19.52;37.90;101315.22;4952279;28;20071;-65
2022/09/20 10:59:31;;;;;;;7.13;2.05;;;;;;;18.78;39.05;101319.47;4945355;29;20047;-67
2022/09/20 11:02:12;;;;;;;5.50;1.77;;;;;;;18.39;39.51;101311.91;4955843;28;20039;-66
2022/09/20 11:04:55;;;;;;;6.70;2.03;;;;;;;17.36;41.85;101319.44;4945629;29;20043;-66
2022/09/20 11:07:55;;;;;;;5.45;2.22;;;;;;;16.81;42.27;101318.06;4954171;29;20054;-66
2022/09/20 11:10:56;;;;;;;4.63;1.52;;;;;;;16.40;43.46;101323.88;4954898;29;20119;-65
2022/09/20 11:13:32;;;;;;;7.05;1.90;;;;;;;16.32;43.97;101316.66;4951547;29;20047;-65
2022/09/20 11:16:16;;;;;;;9.13;1.80;;;;;;;15.86;44.25;101327.56;4952808;29;20043;-66
2022/09/20 11:19:15;;;;;;;8.55;2.08;;;;;;;16.38;43.79;101331.34;4953742;29;20510;-67
2022/09/20 11:21:49;;;;;;;7.38;2.38;;;;;;;16.30;44.07;101326.03;4942623;29;20500;-66
2022/09/20 11:24:25;;;;;;;10.93;2.10;;;;;;;15.84;45.03;101328.75;4955085;29;20058;-65
2022/09/20 11:27:23;;;;;;;7.43;2.25;;;;;;;15.20;46.08;101340.59;4945290;29;20451;-65
2022/09/20 11:30:17;;;;;;;6.78;1.85;;;;;;;14.81;47.62;101340.56;4953413;29;20078;-66
2022/09/20 11:33:04;;;;;;;11.82;2.05;;;;;;;15.06;47.75;101346.72;4946318;29;20043;-66
2022/09/20 11:35:43;;;;;;;7.13;1.92;;;;;;;14.82;50.64;101360.31;4928389;29;20410;-68
2022/09/20 11:38:31;;;;;;;21.58;4.18;;;;;;;13.42;63.10;101356.63;4953185;29;20051;-69
2022/09/20 11:41:16;;;;;;;9.73;2.78;;;;;;;15.34;65.71;101362.50;4954831;29;20047;-71
2022/09/20 11:43:44;;;;;;;7.55;2.38;;;;;;;14.76;67.01;101357.28;4952514;29;20047;-71
2022/09/20 11:46:37;;;;;;;5.05;1.83;;;;;;;15.09;65.23;101345.53;4953067;29;20414;-70
2022/09/20 11:49:11;;;;;;;6.10;1.98;;;;;;;15.06;57.93;101345.88;4953116;29;20138;-70
2022/09/20 11:51:45;;;;;;;3.13;1.23;;;;;;;15.10;59.46;101341.81;4954217;29;20047;-71
2022/09/20 11:54:21;;;;;;;6.82;1.98;;;;;;;15.42;58.93;101346.22;4951048;29;20062;-70
2022/09/20 11:56:55;;;;;;;8.82;2.53;;;;;;;15.82;59.13;101357.88;4943993;29;20047;-71
2022/09/20 11:59:29;;;;;;;5.85;2.30;;;;;;;15.21;56.75;101354.94;4950738;29;20062;-70
2022/09/20 12:01:59;;;;;;;8.77;2.42;;;;;;;15.61;59.05;101356.59;4953463;29;22513;-70
2022/09/20 12:04:33;;;;;;;8.40;2.88;;;;;;;15.68;59.44;101363.03;4951946;29;20051;-71
2022/09/20 12:07:15;;;;;;;6.32;2.50;;;;;;;15.84;59.30;101355.81;4953022;29;20049;-71
2022/09/20 12:10:22;;;;;;;8.32;3.40;;;;;;;16.12;59.31;101354.22;4952781;28;20134;-71
2022/09/20 12:12:56;;;;;;;13.25;4.72;;;;;;;16.53;59.27;101355.78;4904494;29;20051;-71
2022/09/20 12:15:24;;;;;;;12.63;4.38;;;;;;;16.63;55.71;101354.50;4931359;29;20051;-71
2022/09/20 12:17:51;;;;;;;12.52;4.32;;;;;;;17.20;57.62;101354.84;4932010;29;20051;-71
2022/09/20 12:20:57;;;;;;;15.90;4.68;;;;;;;17.20;58.06;101355.72;4932853;29;20068;-71
2022/09/20 12:23:41;;;;;;;10.73;4.88;;;;;;;17.30;56.75;101350.00;4929522;29;20048;-71
2022/09/20 12:26:09;;;;;;;16.45;5.03;;;;;;;18.03;55.73;101358.97;4933140;29;20058;-71
2022/09/20 12:29:03;;;;;;;13.70;4.50;;;;;;;17.85;55.04;101356.72;4934688;29;20079;-71
2022/09/20 12:31:32;;;;;;;7.05;4.15;;;;;;;17.59;54.88;101341.84;4934244;29;20047;-71
2022/09/20 12:34:03;;;;;;;6.35;3.72;;;;;;;17.47;55.93;101354.19;4933954;29;20052;-71
2022/09/20 12:36:34;;;;;;;7.13;3.42;;;;;;;17.20;55.49;101347.59;4929763;29;20054;-71
2022/09/20 12:39:10;;;;;;;8.60;4.30;;;;;;;17.39;55.40;101351.59;4932235;29;20055;-72
2022/09/20 12:41:57;;;;;;;9.38;3.72;;;;;;;17.23;54.78;101359.91;4934623;29;20411;-72
2022/09/20 12:44:45;;;;;;;13.18;4.18;;;;;;;17.65;54.05;101350.22;4933484;29;20044;-71
2022/09/20 12:47:12;;;;;;;13.07;4.88;;;;;;;18.36;53.51;101351.16;4931870;29;20059;-72
2022/09/20 12:53:02;;;;;;;7.38;2.47;;;;;;;18.80;51.05;101360.91;4932046;29;20051;-71
2022/09/20 12:55:31;;;;;;;12.70;2.35;;;;;;;18.59;50.11;101363.69;4931189;29;20048;-71
2022/09/20 12:58:06;;;;;;;9.30;2.50;;;;;;;18.61;50.45;101370.56;4932235;29;20131;-70
2022/09/20 13:00:46;;;;;;;8.10;2.28;;;;;;;18.25;49.91;101381.56;4932663;29;20388;-70
2022/09/20 13:03:22;;;;;;;6.38;1.70;;;;;;;17.84;50.25;101377.59;4932170;29;20515;-71
2022/09/20 13:06:16;;;;;;;3.53;2.00;;;;;;;17.18;50.35;101386.75;4933662;29;20047;-70
2022/09/20 13:08:52;;;;;;;3.42;1.90;;;;;;;16.09;52.23;101397.06;4923263;29;20055;-70
2022/09/20 13:11:22;;;;;;;5.20;1.58;;;;;;;16.50;50.94;101400.31;4933503;29;20497;-70
2022/09/20 13:13:54;;;;;;;3.50;1.30;;;;;;;16.40;51.30;101405.13;4952237;29;20043;-71
2022/09/20 13:16:35;;;;;;;2.10;1.20;;;;;;;16.38;50.94;101399.06;4952080;29;20051;-70
2022/09/20 13:19:28;;;;;;;1.92;1.00;;;;;;;16.32;51.25;101413.31;4953092;29;20516;-70
2022/09/20 13:22:26;;;;;;;1.27;0.63;;;;;;;15.85;51.34;101401.63;4950012;29;20512;-71
2022/09/20 13:24:58;;;;;;;10.60;7.35;;;;;;;16.03;50.57;101412.19;4943505;29;20553;-72
2022/09/20 13:27:31;;;;;;;7.70;4.63;;;;;;;16.10;50.62;101423.97;4948701;29;20503;-72
2022/09/20 13:30:25;;;;;;;4.82;2.08;;;;;;;15.96;51.44;101416.63;4951008;29;20043;-71
2022/09/20 13:32:52;;;;;;;4.00;0.80;;;;;;;16.08;52.26;101406.22;4948611;29;20043;-71
2022/09/20 13:35:30;;;;;;;3.38;1.20;;;;;;;16.18;51.95;101418.47;4951859;29;20058;-72
2022/09/20 13:38:06;;;;;;;4.95;1.10;;;;;;;16.26;51.93;101422.16;4951893;29;20059;-72
2022/09/20 13:40:42;;;;;;;2.80;0.90;;;;;;;16.21;51.77;101414.59;4952572;29;20507;-72
2022/09/20 13:43:36;;;;;;;4.57;1.40;;;;;;;16.65;51.33;101403.91;4952078;29;20055;-72
2022/09/20 13:46:06;;;;;;;1.48;0.93;;;;;;;16.58;50.44;101419.22;4952265;29;20051;-72
2022/09/20 13:48:33;;;;;;;3.53;0.85;;;;;;;16.79;50.97;101423.09;4952966;29;20073;-72
2022/09/20 13:51:00;;;;;;;3.88;1.33;;;;;;;16.78;50.77;101418.69;4952672;29;20055;-72
2022/09/20 13:53:27;;;;;;;2.20;1.00;;;;;;;16.54;51.14;101423.34;4951056;29;20055;-72
2022/09/20 13:56:17;;;;;;;3.00;1.00;;;;;;;16.44;50.94;101422.72;4942745;29;20067;-72
2022/09/20 13:58:43;;;;;;;3.95;1.05;;;;;;;16.35;51.11;101418.38;4951252;29;20051;-72
2022/09/20 14:01:31;;;;;;;2.25;1.33;;;;;;;16.34;50.70;101425.66;4952869;29;20059;-71
2022/09/20 14:04:13;;;;;;;4.43;0.93;;;;;;;16.43;50.53;101416.41;4951035;29;20062;-70
2022/09/20 14:06:41;;;;;;;2.67;1.20;;;;;;;16.69;50.61;101419.81;4952168;29;20058;-71
2022/09/20 14:09:19;;;;;;;6.35;2.00;;;;;;;16.01;51.39;101416.06;4953190;29;20055;-70
2022/09/20 14:11:46;;;;;;;5.57;1.35;;;;;;;16.18;51.19;101423.91;4952170;29;20506;-70
2022/09/20 14:14:13;;;;;;;6.78;0.98;;;;;;;16.06;51.57;101414.53;4951897;29;20058;-70
2022/09/20 14:16:48;;;;;;;4.85;0.60;;;;;;;16.03;50.86;101417.59;4952867;29;20047;-71
2022/09/20 14:19:17;;;;;;;3.40;1.20;;;;;;;16.04;51.12;101421.97;4952503;29;20051;-71
2022/09/20 14:21:45;;;;;;;2.88;0.80;;;;;;;16.17;51.02;101416.81;4951940;29;20047;-70
2022/09/20 14:24:31;;;;;;;3.33;0.77;;;;;;;16.09;51.09;101418.72;4952694;29;20085;-70
2022/09/20 14:27:12;;;;;;;4.35;1.48;;;;;;;16.28;51.08;101420.97;4942912;29;20058;-70
2022/09/20 14:29:49;;;;;;;4.00;1.25;;;;;;;16.50;51.35;101407.56;4937708;29;20047;-70
2022/09/20 14:32:15;;;;;;;2.00;0.80;;;;;;;15.84;51.15;101410.75;4950853;28;20050;-71
2022/09/20 14:34:59;;;;;;;3.38;1.23;;;;;;;16.35;50.83;101413.78;4952801;29;20043;-70
2022/09/20 14:37:43;;;;;;;2.92;0.65;;;;;;;16.50;50.89;101419.28;4950650;29;20051;-70
2022/09/20 14:40:26;;;;;;;0.93;0.70;;;;;;;16.39;50.30;101419.69;4952622;29;20415;-71
2022/09/20 14:42:56;;;;;;;2.60;0.65;;;;;;;16.45;50.48;101418.13;4951058;29;20118;-70
2022/09/20 14:45:37;;;;;;;1.90;0.70;;;;;;;16.59;50.94;101414.66;4951317;29;20059;-70
2022/09/20 14:48:08;;;;;;;3.35;0.70;;;;;;;16.56;50.74;101421.25;4952417;29;20047;-70
2022/09/20 14:50:36;;;;;;;1.83;0.63;;;;;;;16.38;51.77;101420.72;4951620;29;20047;-70
2022/09/20 14:53:25;;;;;;;1.75;0.82;;;;;;;16.64;51.16;101417.63;4952211;29;20055;-70
2022/09/20 14:56:05;;;;;;;0.90;0.63;;;;;;;16.61;49.99;101421.56;4951454;29;20047;-69
2022/09/20 14:58:53;;;;;;;4.20;0.60;;;;;;;16.78;48.64;101424.09;4951335;29;20447;-70
2022/09/20 15:01:23;;;;;;;2.13;0.68;;;;;;;16.85;48.84;101431.34;4951945;29;20048;-71
2022/09/20 15:03:51;;;;;;;3.55;0.93;;;;;;;16.87;49.09;101428.44;4950732;29;20051;-71
2022/09/20 15:06:17;;;;;;;2.10;1.13;;;;;;;16.82;48.81;101434.41;4950482;29;20047;-71
2022/09/20 15:08:44;;;;;;;2.97;0.85;;;;;;;16.89;48.91;101437.22;4952694;29;20047;-70
2022/09/20 15:11:19;;;;;;;2.38;0.43;;;;;;;16.60;47.74;101440.69;4926140;29;20051;-70
2022/09/20 15:13:45;;;;;;;2.28;0.70;;;;;;;16.63;47.80;101448.47;4951271;29;20047;-71
2022/09/20 15:16:13;;;;;;;2.15;0.80;;;;;;;16.77;49.09;101442.25;4952402;29;20403;-70
2022/09/20 15:18:42;;;;;;;2.13;0.52;;;;;;;16.85;46.98;101446.72;4951913;29;20098;-70
2022/09/20 15:21:12;;;;;;;1.92;0.93;;;;;;;16.78;48.67;101452.06;4952168;29;20047;-70
2022/09/20 15:23:39;;;;;;;4.30;0.93;;;;;;;16.55;47.68;101457.50;4951527;29;20047;-71
2022/09/20 15:26:07;;;;;;;4.75;0.77;;;;;;;16.64;48.55;101456.44;4951366;29;20055;-71
2022/09/20 15:28:34;;;;;;;1.63;0.50;;;;;;;15.68;49.91;101463.09;4950903;29;20054;-71
2022/09/20 15:31:00;;;;;;;1.80;0.80;;;;;;;15.02;52.14;101467.00;4952266;29;20047;-71
2022/09/20 15:33:29;;;;;;;4.78;0.80;;;;;;;14.90;52.90;101465.66;4952113;29;20054;-71
2022/09/20 15:35:57;;;;;;;1.55;0.40;;;;;;;14.70;52.91;101463.28;4951427;29;20130;-71